sensor_id;sensor_type;location;lat;lon;timestamp;P1;durP1;ratioP1;P2;durP2;ratioP2
21237;SDS011;10777;50.828;3.264;2022-07-01T00:00:59;10.13;;;4.03;;
21237;SDS011;10777;50.828;3.264;2022-07-01T00:03:25;11.57;;;4.77;;
21237;SDS011;10777;50.828;3.264;2022-07-01T00:05:51;11.63;;;4.80;;
21237;SDS011;10777;50.828;3.264;2022-07-01T00:08:16;14.33;;;5.90;;
21237;SDS011;10777;50.828;3.264;2022-07-01T00:10:42;13.77;;;5.00;;
21237;SDS011;10777;50.828;3.264;2022-07-01T00:13:08;11.80;;;4.60;;
21237;SDS011;10777;50.828;3.264;2022-07-01T00:15:33;10.20;;;4.10;;
21237;SDS011;10777;50.828;3.264;2022-07-01T00:17:59;12.63;;;4.47;;
21237;SDS011;10777;50.828;3.264;2022-07-01T00:20:25;8.70;;;4.37;;
21237;SDS011;10777;50.828;3.264;2022-07-01T00:22:52;9.13;;;4.90;;
21237;SDS011;10777;50.828;3.264;2022-07-01T00:25:17;8.60;;;4.50;;
21237;SDS011;10777;50.828;3.264;2022-07-01T00:27:43;14.00;;;4.10;;
21237;SDS011;10777;50.828;3.264;2022-07-01T00:30:09;9.57;;;4.43;;
21237;SDS011;10777;50.828;3.264;2022-07-01T00:32:35;10.07;;;4.23;;
21237;SDS011;10777;50.828;3.264;2022-07-01T00:35:02;12.73;;;4.37;;
21237;SDS011;10777;50.828;3.264;2022-07-01T00:37:28;7.43;;;4.10;;
21237;SDS011;10777;50.828;3.264;2022-07-01T00:39:53;7.57;;;4.30;;
21237;SDS011;10777;50.828;3.264;2022-07-01T00:42:19;8.47;;;4.30;;
21237;SDS011;10777;50.828;3.264;2022-07-01T00:44:45;7.63;;;3.70;;
21237;SDS011;10777;50.828;3.264;2022-07-01T00:47:12;11.17;;;4.20;;
21237;SDS011;10777;50.828;3.264;2022-07-01T00:49:38;8.57;;;3.70;;
21237;SDS011;10777;50.828;3.264;2022-07-01T00:52:05;9.10;;;3.97;;
21237;SDS011;10777;50.828;3.264;2022-07-01T00:54:34;6.93;;;3.67;;
21237;SDS011;10777;50.828;3.264;2022-07-01T00:57:09;9.83;;;3.93;;
21237;SDS011;10777;50.828;3.264;2022-07-01T00:59:36;6.67;;;3.97;;
21237;SDS011;10777;50.828;3.264;2022-07-01T01:02:05;9.67;;;3.60;;
21237;SDS011;10777;50.828;3.264;2022-07-01T01:04:32;11.27;;;4.47;;
21237;SDS011;10777;50.828;3.264;2022-07-01T01:07:00;10.63;;;4.40;;
21237;SDS011;10777;50.828;3.264;2022-07-01T01:09:31;12.10;;;4.07;;
21237;SDS011;10777;50.828;3.264;2022-07-01T01:11:58;9.63;;;3.97;;
21237;SDS011;10777;50.828;3.264;2022-07-01T01:14:27;10.37;;;4.10;;
21237;SDS011;10777;50.828;3.264;2022-07-01T01:16:53;7.30;;;3.80;;
21237;SDS011;10777;50.828;3.264;2022-07-01T01:19:19;8.87;;;3.67;;
21237;SDS011;10777;50.828;3.264;2022-07-01T01:21:47;10.83;;;3.73;;
21237;SDS011;10777;50.828;3.264;2022-07-01T01:24:12;18.77;;;3.87;;
21237;SDS011;10777;50.828;3.264;2022-07-01T01:26:38;11.90;;;3.67;;
21237;SDS011;10777;50.828;3.264;2022-07-01T01:29:04;12.23;;;3.93;;
21237;SDS011;10777;50.828;3.264;2022-07-01T01:31:32;10.57;;;4.77;;
21237;SDS011;10777;50.828;3.264;2022-07-01T01:33:58;6.00;;;3.90;;
21237;SDS011;10777;50.828;3.264;2022-07-01T01:36:25;15.00;;;3.70;;
21237;SDS011;10777;50.828;3.264;2022-07-01T01:38:51;9.93;;;3.97;;
21237;SDS011;10777;50.828;3.264;2022-07-01T01:41:20;12.20;;;3.77;;
21237;SDS011;10777;50.828;3.264;2022-07-01T01:43:46;9.70;;;4.20;;
21237;SDS011;10777;50.828;3.264;2022-07-01T01:46:12;10.90;;;3.70;;
21237;SDS011;10777;50.828;3.264;2022-07-01T01:48:38;16.53;;;4.07;;
21237;SDS011;10777;50.828;3.264;2022-07-01T01:51:04;10.33;;;3.33;;
21237;SDS011;10777;50.828;3.264;2022-07-01T01:53:30;15.33;;;3.20;;
21237;SDS011;10777;50.828;3.264;2022-07-01T01:55:55;5.40;;;3.10;;
21237;SDS011;10777;50.828;3.264;2022-07-01T01:58:21;11.10;;;3.50;;
21237;SDS011;10777;50.828;3.264;2022-07-01T02:00:46;10.97;;;3.90;;
21237;SDS011;10777;50.828;3.264;2022-07-01T02:03:12;11.53;;;3.40;;
21237;SDS011;10777;50.828;3.264;2022-07-01T02:05:38;17.43;;;4.60;;
21237;SDS011;10777;50.828;3.264;2022-07-01T02:08:04;8.50;;;3.43;;
21237;SDS011;10777;50.828;3.264;2022-07-01T02:10:30;7.63;;;3.70;;
21237;SDS011;10777;50.828;3.264;2022-07-01T02:12:55;9.13;;;3.43;;
21237;SDS011;10777;50.828;3.264;2022-07-01T02:15:21;9.80;;;3.40;;
21237;SDS011;10777;50.828;3.264;2022-07-01T02:17:47;7.17;;;3.37;;
21237;SDS011;10777;50.828;3.264;2022-07-01T02:20:12;8.17;;;3.77;;
21237;SDS011;10777;50.828;3.264;2022-07-01T02:22:40;9.47;;;3.67;;
21237;SDS011;10777;50.828;3.264;2022-07-01T02:25:07;16.63;;;3.63;;
21237;SDS011;10777;50.828;3.264;2022-07-01T02:27:33;12.03;;;3.20;;
21237;SDS011;10777;50.828;3.264;2022-07-01T02:29:59;9.93;;;3.90;;
21237;SDS011;10777;50.828;3.264;2022-07-01T02:32:25;9.43;;;3.37;;
21237;SDS011;10777;50.828;3.264;2022-07-01T02:34:50;9.37;;;3.40;;
21237;SDS011;10777;50.828;3.264;2022-07-01T02:37:16;7.27;;;3.30;;
21237;SDS011;10777;50.828;3.264;2022-07-01T02:39:42;7.20;;;3.10;;
21237;SDS011;10777;50.828;3.264;2022-07-01T02:42:08;9.07;;;3.10;;
21237;SDS011;10777;50.828;3.264;2022-07-01T02:44:51;13.73;;;3.10;;
21237;SDS011;10777;50.828;3.264;2022-07-01T02:47:17;14.97;;;3.57;;
21237;SDS011;10777;50.828;3.264;2022-07-01T02:49:43;8.27;;;3.33;;
21237;SDS011;10777;50.828;3.264;2022-07-01T02:52:09;8.90;;;3.37;;
21237;SDS011;10777;50.828;3.264;2022-07-01T02:54:35;8.63;;;3.37;;
21237;SDS011;10777;50.828;3.264;2022-07-01T02:57:01;10.60;;;3.50;;
21237;SDS011;10777;50.828;3.264;2022-07-01T02:59:27;13.90;;;3.60;;
21237;SDS011;10777;50.828;3.264;2022-07-01T03:01:54;11.30;;;3.03;;
21237;SDS011;10777;50.828;3.264;2022-07-01T03:04:19;7.40;;;3.10;;
21237;SDS011;10777;50.828;3.264;2022-07-01T03:06:45;7.03;;;2.93;;
21237;SDS011;10777;50.828;3.264;2022-07-01T03:09:11;11.83;;;3.30;;
21237;SDS011;10777;50.828;3.264;2022-07-01T03:11:36;7.10;;;3.17;;
21237;SDS011;10777;50.828;3.264;2022-07-01T03:14:02;7.67;;;3.30;;
21237;SDS011;10777;50.828;3.264;2022-07-01T03:16:28;11.90;;;3.20;;
21237;SDS011;10777;50.828;3.264;2022-07-01T03:18:54;14.20;;;3.20;;
21237;SDS011;10777;50.828;3.264;2022-07-01T03:21:19;8.03;;;3.00;;
21237;SDS011;10777;50.828;3.264;2022-07-01T03:23:45;10.93;;;3.30;;
21237;SDS011;10777;50.828;3.264;2022-07-01T03:26:11;8.07;;;3.37;;
21237;SDS011;10777;50.828;3.264;2022-07-01T03:28:36;7.77;;;3.13;;
21237;SDS011;10777;50.828;3.264;2022-07-01T03:31:02;10.17;;;3.00;;
21237;SDS011;10777;50.828;3.264;2022-07-01T03:33:28;8.83;;;2.83;;
21237;SDS011;10777;50.828;3.264;2022-07-01T03:35:53;11.33;;;3.37;;
21237;SDS011;10777;50.828;3.264;2022-07-01T03:38:19;12.33;;;3.07;;
21237;SDS011;10777;50.828;3.264;2022-07-01T03:40:51;10.33;;;3.33;;
21237;SDS011;10777;50.828;3.264;2022-07-01T03:43:16;7.63;;;2.73;;
21237;SDS011;10777;50.828;3.264;2022-07-01T03:45:42;9.93;;;2.50;;
21237;SDS011;10777;50.828;3.264;2022-07-01T03:48:08;14.87;;;3.10;;
21237;SDS011;10777;50.828;3.264;2022-07-01T03:50:33;8.87;;;2.73;;
21237;SDS011;10777;50.828;3.264;2022-07-01T03:52:59;11.27;;;2.67;;
21237;SDS011;10777;50.828;3.264;2022-07-01T03:55:45;8.20;;;2.87;;
21237;SDS011;10777;50.828;3.264;2022-07-01T03:58:10;11.70;;;2.93;;
21237;SDS011;10777;50.828;3.264;2022-07-01T04:00:37;10.20;;;3.13;;
21237;SDS011;10777;50.828;3.264;2022-07-01T04:03:04;11.93;;;2.73;;
21237;SDS011;10777;50.828;3.264;2022-07-01T04:05:32;7.60;;;2.87;;
21237;SDS011;10777;50.828;3.264;2022-07-01T04:08:00;9.30;;;3.23;;
21237;SDS011;10777;50.828;3.264;2022-07-01T04:10:27;9.07;;;2.57;;
21237;SDS011;10777;50.828;3.264;2022-07-01T04:12:57;5.07;;;2.60;;
21237;SDS011;10777;50.828;3.264;2022-07-01T04:15:22;6.90;;;2.30;;
21237;SDS011;10777;50.828;3.264;2022-07-01T04:17:49;8.87;;;2.33;;
21237;SDS011;10777;50.828;3.264;2022-07-01T04:20:14;6.37;;;2.80;;
21237;SDS011;10777;50.828;3.264;2022-07-01T04:22:40;10.67;;;2.50;;
21237;SDS011;10777;50.828;3.264;2022-07-01T04:25:06;11.33;;;2.60;;
21237;SDS011;10777;50.828;3.264;2022-07-01T04:27:32;5.50;;;2.60;;
21237;SDS011;10777;50.828;3.264;2022-07-01T04:29:58;13.60;;;2.40;;
21237;SDS011;10777;50.828;3.264;2022-07-01T04:32:24;13.17;;;2.47;;
21237;SDS011;10777;50.828;3.264;2022-07-01T04:34:50;9.50;;;2.30;;
21237;SDS011;10777;50.828;3.264;2022-07-01T04:37:16;12.43;;;2.17;;
21237;SDS011;10777;50.828;3.264;2022-07-01T04:39:42;13.67;;;2.37;;
21237;SDS011;10777;50.828;3.264;2022-07-01T04:42:08;14.60;;;3.27;;
21237;SDS011;10777;50.828;3.264;2022-07-01T04:44:34;11.90;;;2.10;;
21237;SDS011;10777;50.828;3.264;2022-07-01T04:47:02;14.73;;;4.90;;
21237;SDS011;10777;50.828;3.264;2022-07-01T04:49:28;6.30;;;2.37;;
21237;SDS011;10777;50.828;3.264;2022-07-01T04:51:55;12.33;;;2.30;;
21237;SDS011;10777;50.828;3.264;2022-07-01T04:54:23;11.40;;;1.83;;
21237;SDS011;10777;50.828;3.264;2022-07-01T04:56:50;11.60;;;2.30;;
21237;SDS011;10777;50.828;3.264;2022-07-01T04:59:17;9.50;;;2.27;;
21237;SDS011;10777;50.828;3.264;2022-07-01T05:01:44;11.53;;;2.30;;
21237;SDS011;10777;50.828;3.264;2022-07-01T05:04:13;9.27;;;2.03;;
21237;SDS011;10777;50.828;3.264;2022-07-01T05:06:40;6.53;;;2.23;;
21237;SDS011;10777;50.828;3.264;2022-07-01T05:09:06;14.70;;;1.93;;
21237;SDS011;10777;50.828;3.264;2022-07-01T05:11:32;12.57;;;1.90;;
21237;SDS011;10777;50.828;3.264;2022-07-01T05:13:58;9.00;;;2.00;;
21237;SDS011;10777;50.828;3.264;2022-07-01T05:16:23;10.00;;;2.30;;
21237;SDS011;10777;50.828;3.264;2022-07-01T05:18:49;9.67;;;1.77;;
21237;SDS011;10777;50.828;3.264;2022-07-01T05:21:35;13.67;;;2.63;;
21237;SDS011;10777;50.828;3.264;2022-07-01T05:24:21;5.30;;;2.23;;
21237;SDS011;10777;50.828;3.264;2022-07-01T05:26:48;16.97;;;2.30;;
21237;SDS011;10777;50.828;3.264;2022-07-01T05:29:15;7.37;;;1.90;;
21237;SDS011;10777;50.828;3.264;2022-07-01T05:31:41;10.80;;;2.53;;
21237;SDS011;10777;50.828;3.264;2022-07-01T05:34:07;10.53;;;2.07;;
21237;SDS011;10777;50.828;3.264;2022-07-01T05:36:33;11.33;;;2.73;;
21237;SDS011;10777;50.828;3.264;2022-07-01T05:38:59;6.53;;;2.37;;
21237;SDS011;10777;50.828;3.264;2022-07-01T05:41:25;10.27;;;2.20;;
21237;SDS011;10777;50.828;3.264;2022-07-01T05:43:51;8.73;;;2.50;;
21237;SDS011;10777;50.828;3.264;2022-07-01T05:46:16;10.97;;;1.80;;
21237;SDS011;10777;50.828;3.264;2022-07-01T05:48:42;12.03;;;2.23;;
21237;SDS011;10777;50.828;3.264;2022-07-01T05:51:08;8.50;;;2.30;;
21237;SDS011;10777;50.828;3.264;2022-07-01T05:53:33;12.77;;;2.27;;
21237;SDS011;10777;50.828;3.264;2022-07-01T05:55:59;7.33;;;1.60;;
21237;SDS011;10777;50.828;3.264;2022-07-01T05:58:25;7.40;;;2.23;;
21237;SDS011;10777;50.828;3.264;2022-07-01T06:00:50;9.60;;;2.37;;
21237;SDS011;10777;50.828;3.264;2022-07-01T06:03:16;10.27;;;1.67;;
21237;SDS011;10777;50.828;3.264;2022-07-01T06:05:42;16.93;;;2.20;;
21237;SDS011;10777;50.828;3.264;2022-07-01T06:08:08;5.40;;;1.40;;
21237;SDS011;10777;50.828;3.264;2022-07-01T06:10:34;2.87;;;1.33;;
21237;SDS011;10777;50.828;3.264;2022-07-01T06:13:01;16.37;;;5.00;;
21237;SDS011;10777;50.828;3.264;2022-07-01T06:15:28;10.10;;;1.90;;
21237;SDS011;10777;50.828;3.264;2022-07-01T06:17:54;9.60;;;2.00;;
21237;SDS011;10777;50.828;3.264;2022-07-01T06:20:21;13.33;;;2.07;;
21237;SDS011;10777;50.828;3.264;2022-07-01T06:22:47;9.17;;;1.67;;
21237;SDS011;10777;50.828;3.264;2022-07-01T06:25:13;7.57;;;1.27;;
21237;SDS011;10777;50.828;3.264;2022-07-01T06:27:40;6.33;;;1.67;;
21237;SDS011;10777;50.828;3.264;2022-07-01T06:30:07;12.10;;;1.50;;
21237;SDS011;10777;50.828;3.264;2022-07-01T06:32:33;9.93;;;2.13;;
21237;SDS011;10777;50.828;3.264;2022-07-01T06:34:59;9.10;;;1.70;;
21237;SDS011;10777;50.828;3.264;2022-07-01T06:37:25;8.47;;;2.17;;
21237;SDS011;10777;50.828;3.264;2022-07-01T06:39:51;8.90;;;1.80;;
21237;SDS011;10777;50.828;3.264;2022-07-01T06:42:17;4.70;;;1.17;;
21237;SDS011;10777;50.828;3.264;2022-07-01T06:44:43;10.57;;;2.07;;
21237;SDS011;10777;50.828;3.264;2022-07-01T06:47:09;8.87;;;1.30;;
21237;SDS011;10777;50.828;3.264;2022-07-01T06:49:35;10.67;;;1.50;;
21237;SDS011;10777;50.828;3.264;2022-07-01T06:52:01;8.17;;;1.33;;
21237;SDS011;10777;50.828;3.264;2022-07-01T06:54:27;7.10;;;1.67;;
21237;SDS011;10777;50.828;3.264;2022-07-01T06:56:54;6.90;;;1.50;;
21237;SDS011;10777;50.828;3.264;2022-07-01T06:59:20;6.03;;;1.30;;
21237;SDS011;10777;50.828;3.264;2022-07-01T07:01:45;8.87;;;1.30;;
21237;SDS011;10777;50.828;3.264;2022-07-01T07:04:11;9.60;;;1.23;;
21237;SDS011;10777;50.828;3.264;2022-07-01T07:06:37;6.73;;;1.60;;
21237;SDS011;10777;50.828;3.264;2022-07-01T07:09:03;9.25;;;1.27;;
21237;SDS011;10777;50.828;3.264;2022-07-01T07:11:28;7.07;;;1.90;;
21237;SDS011;10777;50.828;3.264;2022-07-01T07:13:54;10.00;;;1.40;;
21237;SDS011;10777;50.828;3.264;2022-07-01T07:16:20;5.40;;;1.17;;
21237;SDS011;10777;50.828;3.264;2022-07-01T07:18:49;8.03;;;1.20;;
21237;SDS011;10777;50.828;3.264;2022-07-01T07:21:15;6.93;;;1.27;;
21237;SDS011;10777;50.828;3.264;2022-07-01T07:23:41;8.87;;;2.77;;
21237;SDS011;10777;50.828;3.264;2022-07-01T07:26:08;6.60;;;1.33;;
21237;SDS011;10777;50.828;3.264;2022-07-01T07:28:35;4.73;;;1.17;;
21237;SDS011;10777;50.828;3.264;2022-07-01T07:31:02;6.30;;;1.10;;
21237;SDS011;10777;50.828;3.264;2022-07-01T07:33:28;6.57;;;1.63;;
21237;SDS011;10777;50.828;3.264;2022-07-01T07:35:54;6.17;;;1.60;;
21237;SDS011;10777;50.828;3.264;2022-07-01T07:38:19;6.40;;;1.23;;
21237;SDS011;10777;50.828;3.264;2022-07-01T07:40:46;8.40;;;1.30;;
21237;SDS011;10777;50.828;3.264;2022-07-01T07:43:12;8.03;;;1.50;;
21237;SDS011;10777;50.828;3.264;2022-07-01T07:45:38;8.03;;;1.20;;
21237;SDS011;10777;50.828;3.264;2022-07-01T07:48:04;8.85;;;1.20;;
21237;SDS011;10777;50.828;3.264;2022-07-01T07:50:31;11.30;;;1.30;;
21237;SDS011;10777;50.828;3.264;2022-07-01T07:52:57;3.50;;;1.00;;
21237;SDS011;10777;50.828;3.264;2022-07-01T07:55:23;11.77;;;1.60;;
21237;SDS011;10777;50.828;3.264;2022-07-01T07:57:49;7.03;;;1.30;;
21237;SDS011;10777;50.828;3.264;2022-07-01T08:00:15;7.70;;;2.40;;
21237;SDS011;10777;50.828;3.264;2022-07-01T08:02:42;7.25;;;1.65;;
21237;SDS011;10777;50.828;3.264;2022-07-01T08:05:08;6.78;;;1.20;;
21237;SDS011;10777;50.828;3.264;2022-07-01T08:07:35;6.17;;;1.40;;
21237;SDS011;10777;50.828;3.264;2022-07-01T08:10:03;14.57;;;1.55;;
21237;SDS011;10777;50.828;3.264;2022-07-01T08:12:32;13.05;;;2.30;;
21237;SDS011;10777;50.828;3.264;2022-07-01T08:14:58;5.65;;;1.55;;
21237;SDS011;10777;50.828;3.264;2022-07-01T08:17:24;7.60;;;1.20;;
21237;SDS011;10777;50.828;3.264;2022-07-01T08:19:51;6.13;;;1.45;;
21237;SDS011;10777;50.828;3.264;2022-07-01T08:22:17;6.88;;;1.88;;
21237;SDS011;10777;50.828;3.264;2022-07-01T08:24:43;6.05;;;1.33;;
21237;SDS011;10777;50.828;3.264;2022-07-01T08:27:10;16.37;;;1.07;;
21237;SDS011;10777;50.828;3.264;2022-07-01T08:29:38;10.50;;;1.60;;
21237;SDS011;10777;50.828;3.264;2022-07-01T08:32:04;8.07;;;1.55;;
21237;SDS011;10777;50.828;3.264;2022-07-01T08:34:31;13.90;;;1.57;;
21237;SDS011;10777;50.828;3.264;2022-07-01T08:36:57;10.02;;;1.20;;
21237;SDS011;10777;50.828;3.264;2022-07-01T08:39:23;7.30;;;1.20;;
21237;SDS011;10777;50.828;3.264;2022-07-01T08:41:49;5.20;;;1.17;;
21237;SDS011;10777;50.828;3.264;2022-07-01T08:44:15;4.55;;;1.20;;
21237;SDS011;10777;50.828;3.264;2022-07-01T08:46:41;6.50;;;0.90;;
21237;SDS011;10777;50.828;3.264;2022-07-01T08:49:06;7.60;;;1.20;;
21237;SDS011;10777;50.828;3.264;2022-07-01T08:51:32;9.38;;;4.75;;
21237;SDS011;10777;50.828;3.264;2022-07-01T08:53:59;5.88;;;1.23;;
21237;SDS011;10777;50.828;3.264;2022-07-01T08:56:27;7.55;;;2.97;;
21237;SDS011;10777;50.828;3.264;2022-07-01T08:59:11;4.32;;;1.15;;
21237;SDS011;10777;50.828;3.264;2022-07-01T09:01:39;8.67;;;1.63;;
21237;SDS011;10777;50.828;3.264;2022-07-01T09:04:14;5.65;;;1.10;;
21237;SDS011;10777;50.828;3.264;2022-07-01T09:06:41;18.55;;;7.22;;
21237;SDS011;10777;50.828;3.264;2022-07-01T09:09:12;4.40;;;1.00;;
21237;SDS011;10777;50.828;3.264;2022-07-01T09:11:44;5.28;;;1.40;;
21237;SDS011;10777;50.828;3.264;2022-07-01T09:14:18;7.28;;;2.45;;
21237;SDS011;10777;50.828;3.264;2022-07-01T09:16:50;9.10;;;2.10;;
21237;SDS011;10777;50.828;3.264;2022-07-01T09:19:18;5.78;;;1.50;;
21237;SDS011;10777;50.828;3.264;2022-07-01T09:21:47;11.05;;;1.95;;
21237;SDS011;10777;50.828;3.264;2022-07-01T09:24:24;6.82;;;1.30;;
21237;SDS011;10777;50.828;3.264;2022-07-01T09:26:53;4.93;;;1.00;;
21237;SDS011;10777;50.828;3.264;2022-07-01T09:29:25;25.80;;;1.55;;
21237;SDS011;10777;50.828;3.264;2022-07-01T09:31:52;26.63;;;4.10;;
21237;SDS011;10777;50.828;3.264;2022-07-01T09:34:18;3.58;;;1.17;;
21237;SDS011;10777;50.828;3.264;2022-07-01T09:36:53;7.68;;;2.13;;
21237;SDS011;10777;50.828;3.264;2022-07-01T09:39:21;8.68;;;1.33;;
21237;SDS011;10777;50.828;3.264;2022-07-01T09:41:47;7.63;;;1.30;;
21237;SDS011;10777;50.828;3.264;2022-07-01T09:44:14;4.47;;;1.30;;
21237;SDS011;10777;50.828;3.264;2022-07-01T09:46:53;5.45;;;1.27;;
21237;SDS011;10777;50.828;3.264;2022-07-01T09:49:21;6.43;;;1.10;;
21237;SDS011;10777;50.828;3.264;2022-07-01T09:51:49;7.22;;;1.10;;
21237;SDS011;10777;50.828;3.264;2022-07-01T09:54:17;6.43;;;1.85;;
21237;SDS011;10777;50.828;3.264;2022-07-01T09:56:44;8.10;;;2.17;;
21237;SDS011;10777;50.828;3.264;2022-07-01T09:59:10;6.55;;;1.75;;
21237;SDS011;10777;50.828;3.264;2022-07-01T10:01:37;4.50;;;1.35;;
21237;SDS011;10777;50.828;3.264;2022-07-01T10:04:05;4.65;;;0.82;;
21237;SDS011;10777;50.828;3.264;2022-07-01T10:06:42;5.53;;;1.17;;
21237;SDS011;10777;50.828;3.264;2022-07-01T10:12:12;3.47;;;1.23;;
21237;SDS011;10777;50.828;3.264;2022-07-01T10:14:54;5.50;;;1.63;;
21237;SDS011;10777;50.828;3.264;2022-07-01T10:17:26;8.50;;;2.13;;
21237;SDS011;10777;50.828;3.264;2022-07-01T10:19:54;6.38;;;1.40;;
21237;SDS011;10777;50.828;3.264;2022-07-01T10:22:25;6.07;;;1.20;;
21237;SDS011;10777;50.828;3.264;2022-07-01T10:24:53;5.00;;;1.10;;
21237;SDS011;10777;50.828;3.264;2022-07-01T10:27:20;5.82;;;1.00;;
21237;SDS011;10777;50.828;3.264;2022-07-01T10:29:48;4.57;;;1.10;;
21237;SDS011;10777;50.828;3.264;2022-07-01T10:32:28;4.43;;;1.13;;
21237;SDS011;10777;50.828;3.264;2022-07-01T10:35:09;4.65;;;1.15;;
21237;SDS011;10777;50.828;3.264;2022-07-01T10:37:35;4.57;;;1.08;;
21237;SDS011;10777;50.828;3.264;2022-07-01T10:40:39;10.13;;;1.10;;
21237;SDS011;10777;50.828;3.264;2022-07-01T10:43:06;11.15;;;2.05;;
21237;SDS011;10777;50.828;3.264;2022-07-01T10:45:47;6.20;;;1.45;;
21237;SDS011;10777;50.828;3.264;2022-07-01T10:48:17;5.75;;;1.42;;
21237;SDS011;10777;50.828;3.264;2022-07-01T10:50:45;10.02;;;2.90;;
21237;SDS011;10777;50.828;3.264;2022-07-01T10:53:12;10.45;;;1.60;;
21237;SDS011;10777;50.828;3.264;2022-07-01T10:55:38;8.15;;;3.58;;
21237;SDS011;10777;50.828;3.264;2022-07-01T10:58:06;6.55;;;1.45;;
21237;SDS011;10777;50.828;3.264;2022-07-01T11:00:33;6.50;;;1.33;;
21237;SDS011;10777;50.828;3.264;2022-07-01T11:03:08;6.55;;;1.35;;
21237;SDS011;10777;50.828;3.264;2022-07-01T11:05:39;4.28;;;1.17;;
21237;SDS011;10777;50.828;3.264;2022-07-01T11:08:06;8.98;;;1.13;;
21237;SDS011;10777;50.828;3.264;2022-07-01T11:10:32;9.38;;;1.42;;
21237;SDS011;10777;50.828;3.264;2022-07-01T11:12:59;6.57;;;1.38;;
21237;SDS011;10777;50.828;3.264;2022-07-01T11:15:26;5.25;;;1.60;;
21237;SDS011;10777;50.828;3.264;2022-07-01T11:17:55;4.57;;;1.45;;
21237;SDS011;10777;50.828;3.264;2022-07-01T11:20:22;4.70;;;1.25;;
21237;SDS011;10777;50.828;3.264;2022-07-01T11:22:49;6.10;;;1.70;;
21237;SDS011;10777;50.828;3.264;2022-07-01T11:25:15;6.43;;;1.60;;
21237;SDS011;10777;50.828;3.264;2022-07-01T11:27:45;8.67;;;1.57;;
21237;SDS011;10777;50.828;3.264;2022-07-01T11:30:12;6.50;;;1.17;;
21237;SDS011;10777;50.828;3.264;2022-07-01T11:32:41;10.03;;;1.63;;
21237;SDS011;10777;50.828;3.264;2022-07-01T11:35:18;7.60;;;1.50;;
21237;SDS011;10777;50.828;3.264;2022-07-01T11:38:19;7.13;;;3.97;;
21237;SDS011;10777;50.828;3.264;2022-07-01T11:41:21;5.27;;;2.10;;
21237;SDS011;10777;50.828;3.264;2022-07-01T11:43:55;5.43;;;1.47;;
21237;SDS011;10777;50.828;3.264;2022-07-01T11:46:29;4.97;;;1.50;;
21237;SDS011;10777;50.828;3.264;2022-07-01T11:48:55;8.83;;;2.70;;
21237;SDS011;10777;50.828;3.264;2022-07-01T11:51:23;5.80;;;1.90;;
21237;SDS011;10777;50.828;3.264;2022-07-01T11:53:52;6.67;;;1.50;;
21237;SDS011;10777;50.828;3.264;2022-07-01T11:56:35;8.47;;;1.67;;
21237;SDS011;10777;50.828;3.264;2022-07-01T11:59:04;5.10;;;1.50;;
21237;SDS011;10777;50.828;3.264;2022-07-01T12:01:31;5.10;;;1.83;;
21237;SDS011;10777;50.828;3.264;2022-07-01T12:04:04;4.47;;;1.63;;
21237;SDS011;10777;50.828;3.264;2022-07-01T12:06:31;8.70;;;1.80;;
21237;SDS011;10777;50.828;3.264;2022-07-01T12:08:59;5.57;;;1.77;;
21237;SDS011;10777;50.828;3.264;2022-07-01T12:11:26;4.97;;;1.40;;
21237;SDS011;10777;50.828;3.264;2022-07-01T12:13:53;11.43;;;1.80;;
21237;SDS011;10777;50.828;3.264;2022-07-01T12:16:21;4.83;;;2.33;;
21237;SDS011;10777;50.828;3.264;2022-07-01T12:19:03;7.13;;;2.25;;
21237;SDS011;10777;50.828;3.264;2022-07-01T12:21:29;8.30;;;1.70;;
21237;SDS011;10777;50.828;3.264;2022-07-01T12:24:04;8.90;;;4.63;;
21237;SDS011;10777;50.828;3.264;2022-07-01T12:26:34;11.15;;;3.63;;
21237;SDS011;10777;50.828;3.264;2022-07-01T12:29:00;4.43;;;1.30;;
21237;SDS011;10777;50.828;3.264;2022-07-01T12:31:26;5.28;;;1.17;;
21237;SDS011;10777;50.828;3.264;2022-07-01T12:33:52;5.32;;;1.38;;
21237;SDS011;10777;50.828;3.264;2022-07-01T12:36:18;10.45;;;1.38;;
21237;SDS011;10777;50.828;3.264;2022-07-01T12:38:45;3.05;;;1.10;;
21237;SDS011;10777;50.828;3.264;2022-07-01T12:41:26;4.95;;;1.67;;
21237;SDS011;10777;50.828;3.264;2022-07-01T12:43:53;6.90;;;1.73;;
21237;SDS011;10777;50.828;3.264;2022-07-01T12:46:28;8.95;;;1.52;;
21237;SDS011;10777;50.828;3.264;2022-07-01T12:48:54;9.02;;;1.73;;
21237;SDS011;10777;50.828;3.264;2022-07-01T12:51:21;6.47;;;1.30;;
21237;SDS011;10777;50.828;3.264;2022-07-01T12:53:53;5.38;;;1.70;;
21237;SDS011;10777;50.828;3.264;2022-07-01T12:56:22;4.47;;;1.20;;
21237;SDS011;10777;50.828;3.264;2022-07-01T12:58:49;9.93;;;1.42;;
21237;SDS011;10777;50.828;3.264;2022-07-01T13:01:17;10.15;;;1.77;;
21237;SDS011;10777;50.828;3.264;2022-07-01T13:03:44;2.92;;;1.10;;
21237;SDS011;10777;50.828;3.264;2022-07-01T13:06:10;5.00;;;1.20;;
21237;SDS011;10777;50.828;3.264;2022-07-01T13:08:36;7.20;;;1.17;;
21237;SDS011;10777;50.828;3.264;2022-07-01T13:11:02;8.73;;;1.55;;
21237;SDS011;10777;50.828;3.264;2022-07-01T13:13:27;10.93;;;1.52;;
21237;SDS011;10777;50.828;3.264;2022-07-01T13:15:53;7.10;;;1.08;;
21237;SDS011;10777;50.828;3.264;2022-07-01T13:18:20;5.93;;;1.52;;
21237;SDS011;10777;50.828;3.264;2022-07-01T13:20:46;3.92;;;1.27;;
21237;SDS011;10777;50.828;3.264;2022-07-01T13:23:12;3.65;;;1.30;;
21237;SDS011;10777;50.828;3.264;2022-07-01T13:25:39;4.40;;;1.52;;
21237;SDS011;10777;50.828;3.264;2022-07-01T13:28:05;5.30;;;1.30;;
21237;SDS011;10777;50.828;3.264;2022-07-01T13:30:31;6.15;;;1.23;;
21237;SDS011;10777;50.828;3.264;2022-07-01T13:32:57;5.30;;;1.00;;
21237;SDS011;10777;50.828;3.264;2022-07-01T13:35:23;4.03;;;1.30;;
21237;SDS011;10777;50.828;3.264;2022-07-01T13:37:49;4.28;;;1.40;;
21237;SDS011;10777;50.828;3.264;2022-07-01T13:40:16;6.43;;;1.30;;
21237;SDS011;10777;50.828;3.264;2022-07-01T13:42:42;9.25;;;1.25;;
21237;SDS011;10777;50.828;3.264;2022-07-01T13:45:08;5.88;;;1.75;;
21237;SDS011;10777;50.828;3.264;2022-07-01T13:47:34;5.38;;;1.42;;
21237;SDS011;10777;50.828;3.264;2022-07-01T13:50:00;11.30;;;1.35;;
21237;SDS011;10777;50.828;3.264;2022-07-01T13:52:26;5.00;;;1.30;;
21237;SDS011;10777;50.828;3.264;2022-07-01T13:54:53;3.70;;;1.10;;
21237;SDS011;10777;50.828;3.264;2022-07-01T13:57:20;4.93;;;1.30;;
21237;SDS011;10777;50.828;3.264;2022-07-01T13:59:46;3.50;;;1.13;;
21237;SDS011;10777;50.828;3.264;2022-07-01T14:02:12;8.55;;;2.17;;
21237;SDS011;10777;50.828;3.264;2022-07-01T14:04:38;12.23;;;1.50;;
21237;SDS011;10777;50.828;3.264;2022-07-01T14:07:04;11.55;;;1.75;;
21237;SDS011;10777;50.828;3.264;2022-07-01T14:09:31;5.90;;;1.50;;
21237;SDS011;10777;50.828;3.264;2022-07-01T14:11:57;5.03;;;1.50;;
21237;SDS011;10777;50.828;3.264;2022-07-01T14:14:23;3.67;;;1.45;;
21237;SDS011;10777;50.828;3.264;2022-07-01T14:16:49;6.05;;;1.00;;
21237;SDS011;10777;50.828;3.264;2022-07-01T14:19:15;8.77;;;1.20;;
21237;SDS011;10777;50.828;3.264;2022-07-01T14:21:41;4.25;;;1.00;;
21237;SDS011;10777;50.828;3.264;2022-07-01T14:24:06;5.00;;;1.95;;
21237;SDS011;10777;50.828;3.264;2022-07-01T14:26:32;5.18;;;1.58;;
21237;SDS011;10777;50.828;3.264;2022-07-01T14:28:58;3.80;;;1.02;;
21237;SDS011;10777;50.828;3.264;2022-07-01T14:31:24;4.28;;;1.30;;
21237;SDS011;10777;50.828;3.264;2022-07-01T14:33:50;8.50;;;1.88;;
21237;SDS011;10777;50.828;3.264;2022-07-01T14:36:16;4.43;;;1.42;;
21237;SDS011;10777;50.828;3.264;2022-07-01T14:38:42;7.72;;;1.50;;
21237;SDS011;10777;50.828;3.264;2022-07-01T14:41:08;6.60;;;1.83;;
21237;SDS011;10777;50.828;3.264;2022-07-01T14:43:34;6.45;;;1.63;;
21237;SDS011;10777;50.828;3.264;2022-07-01T14:46:00;11.05;;;1.75;;
21237;SDS011;10777;50.828;3.264;2022-07-01T14:48:29;12.00;;;2.47;;